Clear Creek, Texas
Current Conditions -  °F | °C
As of 10:56 PM on Friday 28 Nov 2014 (Local Time) from KHLR Reporting Station
Clear Clear  
Wind Chill: 58°   Ceiling: Unl
Heat Index: 58°   Visibility: 10mi
Dew Point: 47°   Wind: 7mph
Humidity: 67%   Direction: 150°SSE
Pressure: 30.06"   Gusts: NA
Location:  31.2151°N, 97.7405°W
Report Text: KHLR 290456Z AUTO 15006KT 10SM CLR 14/08 A3006 RMK AO2 SLP207 T01440083 $
Loading
Personal Weather Stations






























Interactive Weather Map New forecast layout! Learn more

10-Day Weather Forecast

Advertisements
Track Severe Weather on mobile